createdAt,value
2019-02-05T00:00:38.290Z,47.47
2019-02-05T00:03:09.898Z,39.87
2019-02-05T00:05:38.570Z,40.77
2019-02-05T00:08:07.243Z,37.73
2019-02-05T00:10:36.025Z,36.77
2019-02-05T00:13:05.813Z,27.40
2019-02-05T00:15:34.763Z,34.07
2019-02-05T00:18:03.427Z,36.53
2019-02-05T00:20:32.325Z,36.80
2019-02-05T00:23:01.174Z,33.63
2019-02-05T00:25:30.006Z,35.77
2019-02-05T00:27:58.691Z,34.57
2019-02-05T00:30:28.059Z,38.70
2019-02-05T00:32:56.718Z,38.50
2019-02-05T00:35:25.418Z,35.77
2019-02-05T00:37:54.422Z,37.40
2019-02-05T00:40:23.116Z,36.17
2019-02-05T00:42:52.238Z,40.80
2019-02-05T00:45:22.179Z,35.33
2019-02-05T00:47:50.838Z,37.23
2019-02-05T00:50:20.320Z,37.17
2019-02-05T00:52:49.886Z,36.97
2019-02-05T00:55:19.996Z,38.80
2019-02-05T00:57:48.765Z,37.70
2019-02-05T01:00:29.966Z,42.67
2019-02-05T01:02:59.146Z,31.90
2019-02-05T01:05:28.011Z,34.10
2019-02-05T01:07:57.476Z,31.73
2019-02-05T01:10:26.748Z,36.57
2019-02-05T01:12:55.998Z,33.17
2019-02-05T01:15:26.260Z,34.53
2019-02-05T01:17:55.260Z,38.97
2019-02-05T01:20:24.416Z,35.53
2019-02-05T01:22:53.629Z,36.50
2019-02-05T01:25:23.498Z,33.23
2019-02-05T01:27:52.758Z,36.93
2019-02-05T01:30:26.474Z,37.27
2019-02-05T01:32:55.244Z,32.43
2019-02-05T01:35:24.186Z,36.33
2019-02-05T01:37:53.364Z,34.13
2019-02-05T01:40:26.658Z,31.90
2019-02-05T01:42:55.922Z,33.03
2019-02-05T01:45:25.299Z,35.27
2019-02-05T01:47:54.342Z,31.20
2019-02-05T01:50:25.123Z,39.03
2019-02-05T01:52:54.193Z,33.83
2019-02-05T01:55:23.747Z,32.30
2019-02-05T01:57:52.788Z,32.97
2019-02-05T02:00:26.978Z,32.73
2019-02-05T02:02:55.681Z,33.03
2019-02-05T02:05:24.923Z,34.50
2019-02-05T02:07:53.584Z,39.00
2019-02-05T02:10:30.389Z,36.60
2019-02-05T02:12:59.569Z,34.37
2019-02-05T02:15:28.650Z,36.20
2019-02-05T02:17:57.356Z,33.80
2019-02-05T02:20:26.287Z,34.43
2019-02-05T02:22:55.239Z,35.17
2019-02-05T02:25:24.104Z,36.43
2019-02-05T02:27:52.944Z,36.23
2019-02-05T02:30:24.377Z,30.63
2019-02-05T02:32:53.102Z,35.23
2019-02-05T02:35:22.091Z,31.37
2019-02-05T02:37:51.339Z,38.17
2019-02-05T02:40:20.123Z,34.97
2019-02-05T02:42:48.873Z,36.37
2019-02-05T02:45:17.665Z,33.97
2019-02-05T02:47:46.440Z,38.37
2019-02-05T02:50:17.579Z,36.23
2019-02-05T02:52:46.781Z,37.73
2019-02-05T02:55:16.253Z,32.37
2019-02-05T02:57:45.552Z,35.03
2019-02-05T03:00:21.940Z,35.20
2019-02-05T03:02:51.854Z,35.47
2019-02-05T03:05:22.942Z,34.00
2019-02-05T03:07:52.655Z,35.83
2019-02-05T03:10:23.716Z,30.53
2019-02-05T03:12:52.977Z,33.13
2019-02-05T03:15:22.054Z,31.77
2019-02-05T03:17:50.712Z,31.60
2019-02-05T03:20:19.401Z,31.50
2019-02-05T03:22:48.098Z,35.33
2019-02-05T03:25:22.850Z,30.97
2019-02-05T03:27:53.698Z,35.57
2019-02-05T03:30:24.833Z,30.60
2019-02-05T03:32:55.542Z,35.97
2019-02-05T03:35:24.774Z,35.70
2019-02-05T03:37:53.493Z,35.47
2019-02-05T03:40:31.202Z,33.03
2019-02-05T03:43:00.169Z,32.63
2019-02-05T03:45:31.852Z,32.50
2019-02-05T03:48:02.962Z,29.60
2019-02-05T03:50:33.779Z,33.80
2019-02-05T03:53:11.643Z,29.40
2019-02-05T03:56:03.993Z,34.70
2019-02-05T03:58:56.381Z,32.53
2019-02-05T04:01:52.190Z,36.20
2019-02-05T04:04:33.123Z,36.07
2019-02-05T04:07:37.864Z,38.33
2019-02-05T04:10:25.908Z,39.27
2019-02-05T04:13:24.357Z,38.77
2019-02-05T04:16:13.615Z,34.07
2019-02-05T04:19:16.999Z,32.83
2019-02-05T04:21:57.865Z,37.23
2019-02-05T04:24:48.913Z,34.87
2019-02-05T04:27:25.995Z,34.53
2019-02-05T04:29:57.790Z,36.33
2019-02-05T04:32:48.771Z,38.10
2019-02-05T04:35:29.357Z,38.37
2019-02-05T04:38:21.886Z,39.37
2019-02-05T04:41:05.070Z,39.17
2019-02-05T04:43:42.586Z,37.17
2019-02-05T04:46:29.573Z,35.07
2019-02-05T04:49:04.499Z,39.67
2019-02-05T04:51:53.748Z,35.17
2019-02-05T04:54:34.098Z,35.30
2019-02-05T04:57:34.407Z,36.80
2019-02-05T05:00:32.990Z,34.43
2019-02-05T05:06:00.324Z,36.30
2019-02-05T05:08:34.683Z,29.33
2019-02-05T05:11:03.658Z,35.30
2019-02-05T05:13:33.055Z,33.67
2019-02-05T05:16:02.223Z,36.13
2019-02-05T05:18:31.032Z,36.20
2019-02-05T05:21:00.612Z,34.23
2019-02-05T05:23:29.607Z,37.67
2019-02-05T05:25:58.565Z,34.40
2019-02-05T05:28:27.353Z,37.17
2019-02-05T05:30:56.852Z,39.67
2019-02-05T05:33:25.517Z,33.40
2019-02-05T05:35:54.505Z,36.13
2019-02-05T05:38:23.211Z,36.87
2019-02-05T05:40:51.852Z,36.77
2019-02-05T05:43:20.628Z,37.67
2019-02-05T05:45:49.439Z,37.57
2019-02-05T05:48:18.523Z,39.77
2019-02-05T05:50:47.184Z,37.53
2019-02-05T05:53:16.013Z,36.83
2019-02-05T05:55:44.779Z,35.40
2019-02-05T05:58:22.300Z,31.43
2019-02-05T06:00:43.848Z,78.73
2019-02-05T06:03:12.822Z,33.77
2019-02-05T06:05:41.664Z,32.63
2019-02-05T06:08:10.833Z,34.30
2019-02-05T06:10:39.516Z,37.20
2019-02-05T06:13:08.189Z,32.83
2019-02-05T06:15:37.097Z,35.60
2019-02-05T06:18:06.006Z,35.67
2019-02-05T06:20:35.266Z,35.43
2019-02-05T06:23:04.058Z,35.40
2019-02-05T06:25:33.070Z,45.57
2019-02-05T06:28:01.728Z,40.43
2019-02-05T06:30:30.566Z,39.87
2019-02-05T06:32:59.366Z,43.30
2019-02-05T06:35:28.066Z,37.70
2019-02-05T06:37:56.843Z,38.67
2019-02-05T06:40:25.539Z,51.23
2019-02-05T06:42:54.206Z,39.70
2019-02-05T06:45:23.188Z,45.33
2019-02-05T06:47:52.304Z,41.87
2019-02-05T06:50:21.400Z,37.20
2019-02-05T06:52:50.783Z,36.67
2019-02-05T06:55:19.877Z,36.70
2019-02-05T06:57:48.563Z,40.30
2019-02-05T07:00:22.729Z,40.87
2019-02-05T07:02:53.011Z,47.10
2019-02-05T07:05:21.961Z,46.53
2019-02-05T07:07:51.633Z,38.13
2019-02-05T07:10:24.657Z,41.97
2019-02-05T07:12:54.417Z,42.37
2019-02-05T07:15:23.364Z,46.97
2019-02-05T07:17:52.034Z,44.03
2019-02-05T07:20:21.187Z,43.83
2019-02-05T07:22:50.653Z,42.30
2019-02-05T07:25:20.976Z,55.97
2019-02-05T07:27:49.849Z,54.10
2019-02-05T07:30:21.504Z,52.67
2019-02-05T07:32:50.510Z,65.37
2019-02-05T07:35:19.325Z,58.03
2019-02-05T07:37:48.912Z,55.93
2019-02-05T07:40:20.849Z,59.53
2019-02-05T07:42:49.662Z,58.10
2019-02-05T07:45:23.555Z,53.47
2019-02-05T07:47:52.524Z,53.27
2019-02-05T07:50:29.305Z,57.83
2019-02-05T07:52:57.370Z,48.23
2019-02-05T07:55:29.446Z,48.87
2019-02-05T07:58:00.233Z,47.60
2019-02-05T08:00:31.586Z,48.87
2019-02-05T08:03:00.858Z,50.63
2019-02-05T08:05:33.144Z,47.97
2019-02-05T08:08:03.459Z,45.80
2019-02-05T08:10:33.257Z,48.07
2019-02-05T08:13:03.139Z,46.90
2019-02-05T08:15:33.636Z,43.50
2019-02-05T08:18:03.106Z,44.47
2019-02-05T08:20:32.259Z,48.93
2019-02-05T08:23:01.084Z,49.47
2019-02-05T08:25:31.471Z,50.47
2019-02-05T08:28:01.127Z,51.43
2019-02-05T08:30:35.604Z,66.40
2019-02-05T08:33:05.202Z,52.13
2019-02-05T08:35:34.128Z,52.37
2019-02-05T08:38:03.103Z,52.53
2019-02-05T08:40:32.399Z,51.83
2019-02-05T08:43:01.457Z,48.43
2019-02-05T08:45:35.874Z,49.77
2019-02-05T08:48:06.586Z,47.67
2019-02-05T08:50:35.359Z,45.57
2019-02-05T08:53:04.442Z,46.53
2019-02-05T08:55:33.713Z,56.60
2019-02-05T08:58:05.461Z,46.77
2019-02-05T09:00:36.213Z,64.00
2019-02-05T09:03:05.676Z,52.13
2019-02-05T09:05:34.945Z,62.97
2019-02-05T09:08:04.516Z,59.40
2019-02-05T09:10:38.990Z,51.43
2019-02-05T09:13:08.419Z,55.20
2019-02-05T09:15:37.193Z,58.47
2019-02-05T09:18:06.351Z,48.63
2019-02-05T09:20:35.012Z,65.17
2019-02-05T09:23:07.875Z,56.47
2019-02-05T09:25:36.998Z,66.00
2019-02-05T09:28:06.101Z,61.63
2019-02-05T09:30:36.422Z,72.27
2019-02-05T09:33:16.708Z,68.13
2019-02-05T09:35:46.078Z,63.13
2019-02-05T09:38:14.829Z,73.10
2019-02-05T09:40:47.852Z,56.27
2019-02-05T09:43:16.808Z,59.67
2019-02-05T09:45:45.599Z,66.20
2019-02-05T09:48:14.499Z,54.27
2019-02-05T09:50:44.982Z,57.73
2019-02-05T09:53:14.250Z,62.07
2019-02-05T09:55:45.486Z,57.83
2019-02-05T09:58:14.200Z,46.80
2019-02-05T10:00:43.557Z,55.30
2019-02-05T10:03:12.300Z,52.97
2019-02-05T10:05:41.835Z,51.40
2019-02-05T10:08:10.773Z,46.63
2019-02-05T10:10:39.628Z,48.70
2019-02-05T10:13:08.568Z,43.27
2019-02-05T10:15:40.288Z,38.50
2019-02-05T10:18:11.364Z,38.10
2019-02-05T10:20:40.768Z,39.80
2019-02-05T10:23:10.254Z,36.77
2019-02-05T10:25:39.096Z,33.63
2019-02-05T10:28:08.308Z,36.17
2019-02-05T10:30:39.408Z,36.23
2019-02-05T10:33:10.084Z,34.27
2019-02-05T10:35:39.191Z,32.90
2019-02-05T10:38:08.267Z,35.00
2019-02-05T10:40:37.394Z,30.93
2019-02-05T10:43:06.961Z,37.23
2019-02-05T10:45:36.468Z,36.23
2019-02-05T10:48:07.231Z,38.10
2019-02-05T10:50:37.284Z,39.20
2019-02-05T10:53:06.415Z,41.43
2019-02-05T10:55:35.397Z,51.07
2019-02-05T10:58:04.711Z,46.10
2019-02-05T11:00:34.156Z,52.37
2019-02-05T11:03:05.210Z,46.03
2019-02-05T11:05:34.269Z,48.87
2019-02-05T11:08:03.924Z,51.07
2019-02-05T11:10:32.792Z,49.17
2019-02-05T11:13:01.761Z,41.13
2019-02-05T11:15:32.741Z,46.67
2019-02-05T11:18:03.302Z,41.63
2019-02-05T11:20:34.145Z,47.70
2019-02-05T11:23:03.749Z,45.33
2019-02-05T11:25:43.319Z,37.47
2019-02-05T11:28:11.981Z,36.13
2019-02-05T11:30:46.622Z,44.30
2019-02-05T11:33:15.832Z,44.30
2019-02-05T11:35:44.895Z,42.87
2019-02-05T11:38:15.013Z,42.10
2019-02-05T11:40:46.163Z,38.50
2019-02-05T11:43:16.546Z,35.95
2019-02-05T11:45:46.188Z,34.15
2019-02-05T11:48:19.618Z,33.67
2019-02-05T11:50:48.748Z,39.53
2019-02-05T11:53:20.653Z,42.80
2019-02-05T11:55:52.915Z,35.88
2019-02-05T11:58:22.946Z,39.85
2019-02-05T12:00:53.697Z,39.10
2019-02-05T12:03:22.434Z,32.58
2019-02-05T12:05:51.341Z,31.37
2019-02-05T12:08:20.641Z,30.57
2019-02-05T12:10:49.460Z,42.65
2019-02-05T12:13:18.321Z,38.05
2019-02-05T12:15:47.504Z,35.65
2019-02-05T12:18:16.313Z,33.83
2019-02-05T12:20:45.426Z,30.68
2019-02-05T12:23:14.109Z,26.25
2019-02-05T12:25:42.913Z,26.87
2019-02-05T12:28:11.655Z,28.52
2019-02-05T12:30:45.646Z,27.80
2019-02-05T12:33:23.909Z,30.62
2019-02-05T12:35:52.802Z,24.35
2019-02-05T12:38:21.680Z,26.90
2019-02-05T12:40:50.338Z,27.77
2019-02-05T12:43:19.030Z,24.52
2019-02-05T12:45:47.701Z,22.87
2019-02-05T12:48:16.484Z,28.30
2019-02-05T12:50:46.256Z,28.80
2019-02-05T12:53:15.310Z,24.87
2019-02-05T12:55:44.076Z,32.30
2019-02-05T12:58:13.129Z,24.30
2019-02-05T13:00:58.665Z,26.57
2019-02-05T13:03:20.457Z,28.83
2019-02-05T13:05:49.173Z,28.10
2019-02-05T13:08:17.997Z,30.70
2019-02-05T13:10:49.431Z,27.70
2019-02-05T13:13:18.489Z,34.50
2019-02-05T13:15:47.357Z,26.80
2019-02-05T13:18:16.180Z,27.87
2019-02-05T13:20:45.514Z,31.27
2019-02-05T13:23:15.817Z,31.37
2019-02-05T13:25:44.495Z,34.07
2019-02-05T13:28:13.617Z,34.80
2019-02-05T13:30:42.284Z,37.13
2019-02-05T13:33:12.254Z,37.13
2019-02-05T13:35:41.190Z,41.40
2019-02-05T13:38:16.944Z,40.27
2019-02-05T13:40:47.290Z,40.93
2019-02-05T13:43:18.741Z,39.73
2019-02-05T13:45:49.208Z,37.20
2019-02-05T13:48:19.974Z,40.93
2019-02-05T13:50:57.217Z,38.87
2019-02-05T13:53:33.347Z,38.57
2019-02-05T13:56:05.339Z,29.93
2019-02-05T13:58:34.413Z,33.03
2019-02-05T14:01:03.136Z,40.67
2019-02-05T14:03:33.439Z,32.50
2019-02-05T14:06:02.125Z,26.13
2019-02-05T14:08:31.211Z,29.20
2019-02-05T14:11:00.510Z,23.03
2019-02-05T14:13:29.898Z,28.13
2019-02-05T14:15:58.721Z,18.17
2019-02-05T14:18:27.614Z,23.73
2019-02-05T14:20:56.525Z,45.20
2019-02-05T14:23:25.412Z,27.43
2019-02-05T14:25:54.290Z,23.40
2019-02-05T14:28:23.875Z,20.10
2019-02-05T14:30:53.901Z,24.63
2019-02-05T14:33:23.304Z,25.03
2019-02-05T14:35:52.015Z,26.13
2019-02-05T14:38:21.016Z,27.57
2019-02-05T14:40:49.678Z,18.17
2019-02-05T14:43:18.570Z,20.70
2019-02-05T14:45:47.249Z,24.13
2019-02-05T14:48:16.215Z,22.57
2019-02-05T14:50:47.021Z,25.43
2019-02-05T14:53:20.185Z,22.03
2019-02-05T14:55:48.882Z,22.30
2019-02-05T14:58:27.652Z,22.77
2019-02-05T15:00:56.412Z,26.27
2019-02-05T15:03:26.545Z,39.97
2019-02-05T15:05:55.238Z,27.97
2019-02-05T15:08:25.477Z,24.33
2019-02-05T15:10:55.063Z,20.90
2019-02-05T15:13:24.156Z,26.93
2019-02-05T15:15:53.168Z,25.07
2019-02-05T15:18:21.859Z,30.97
2019-02-05T15:20:50.832Z,26.43
2019-02-05T15:23:20.413Z,32.93
2019-02-05T15:25:49.134Z,30.50
2019-02-05T15:28:17.821Z,27.97
2019-02-05T15:30:46.767Z,25.57
2019-02-05T15:33:34.851Z,31.43
2019-02-05T15:36:05.094Z,32.43
2019-02-05T15:38:33.757Z,34.47
2019-02-05T15:41:02.431Z,27.60
2019-02-05T15:43:31.656Z,27.70
2019-02-05T15:46:00.362Z,24.50
2019-02-05T15:48:29.108Z,24.00
2019-02-05T15:50:57.909Z,30.37
2019-02-05T15:53:26.917Z,31.00
2019-02-05T15:55:55.905Z,26.17
2019-02-05T15:58:24.596Z,29.87
2019-02-05T16:00:53.453Z,26.47
2019-02-05T16:03:22.265Z,27.53
2019-02-05T16:05:51.078Z,29.47
2019-02-05T16:08:20.228Z,31.60
2019-02-05T16:10:48.956Z,30.67
2019-02-05T16:13:17.693Z,34.17
2019-02-05T16:15:46.416Z,29.70
2019-02-05T16:18:15.463Z,38.13
2019-02-05T16:20:44.228Z,28.90
2019-02-05T16:23:12.932Z,34.23
2019-02-05T16:25:41.605Z,43.23
2019-02-05T16:28:10.667Z,40.30
2019-02-05T16:30:39.342Z,43.57
2019-02-05T16:33:08.308Z,57.03
2019-02-05T16:35:37.109Z,50.23
2019-02-05T16:38:06.553Z,45.20
2019-02-05T16:40:38.215Z,41.77
2019-02-05T16:43:07.236Z,45.10
2019-02-05T16:45:35.976Z,52.70
2019-02-05T16:48:05.364Z,49.27
2019-02-05T16:50:40.054Z,50.07
2019-02-05T16:53:09.648Z,40.57
2019-02-05T16:55:38.369Z,41.30
2019-02-05T16:58:07.652Z,33.50
2019-02-05T17:00:37.731Z,35.87
2019-02-05T17:03:07.651Z,36.50
2019-02-05T17:05:39.204Z,38.03
2019-02-05T17:08:08.440Z,30.93
2019-02-05T17:10:37.127Z,36.27
2019-02-05T17:13:06.203Z,39.50
2019-02-05T17:15:35.293Z,39.53
2019-02-05T17:18:04.394Z,37.90
2019-02-05T17:20:33.972Z,36.77
2019-02-05T17:23:03.227Z,41.17
2019-02-05T17:25:32.024Z,41.30
2019-02-05T17:28:02.523Z,42.37
2019-02-05T17:30:34.123Z,38.33
2019-02-05T17:33:02.843Z,37.53
2019-02-05T17:35:31.789Z,30.20
2019-02-05T17:38:00.902Z,33.73
2019-02-05T17:40:29.791Z,32.43
2019-02-05T17:42:58.469Z,29.80
2019-02-05T17:45:32.641Z,27.87
2019-02-05T17:48:03.128Z,29.20
2019-02-05T17:50:31.941Z,24.57
2019-02-05T17:53:01.110Z,25.40
2019-02-05T17:55:30.306Z,21.40
2019-02-05T17:57:58.985Z,25.00
2019-02-05T18:00:31.756Z,22.43
2019-02-05T18:03:01.165Z,27.77
2019-02-05T18:05:30.100Z,27.73
2019-02-05T18:07:59.058Z,23.77
2019-02-05T18:10:28.674Z,25.73
2019-02-05T18:12:57.383Z,26.33
2019-02-05T18:15:34.055Z,33.00
2019-02-05T18:18:02.830Z,30.47
2019-02-05T18:20:32.002Z,29.33
2019-02-05T18:23:00.733Z,26.90
2019-02-05T18:25:29.457Z,27.47
2019-02-05T18:27:58.275Z,22.67
2019-02-05T18:30:32.222Z,27.40
2019-02-05T18:33:04.533Z,31.43
2019-02-05T18:35:32.275Z,28.23
2019-02-05T18:38:02.048Z,24.03
2019-02-05T18:40:31.002Z,25.93
2019-02-05T18:42:59.980Z,28.67
2019-02-05T18:45:28.830Z,25.67
2019-02-05T18:47:57.619Z,35.53
2019-02-05T18:50:28.184Z,30.70
2019-02-05T18:52:57.111Z,26.73
2019-02-05T18:55:28.699Z,32.33
2019-02-05T18:58:08.420Z,32.97
2019-02-05T19:00:38.691Z,31.17
2019-02-05T19:03:15.036Z,29.37
2019-02-05T19:05:37.472Z,27.87
2019-02-05T19:08:06.814Z,32.33
2019-02-05T19:10:35.863Z,35.97
2019-02-05T19:13:05.133Z,31.83
2019-02-05T19:15:38.795Z,29.93
2019-02-05T19:18:08.949Z,34.00
2019-02-05T19:20:37.631Z,31.97
2019-02-05T19:23:08.501Z,33.67
2019-02-05T19:25:45.494Z,35.50
2019-02-05T19:28:28.001Z,34.90
2019-02-05T19:30:58.308Z,35.80
2019-02-05T19:33:27.637Z,36.23
2019-02-05T19:35:56.440Z,45.37
2019-02-05T19:38:25.104Z,43.30
2019-02-05T19:40:57.609Z,38.80
2019-02-05T19:43:24.168Z,39.10
2019-02-05T19:46:00.517Z,38.43
2019-02-05T19:48:30.973Z,33.53
2019-02-05T19:51:00.492Z,33.77
2019-02-05T19:53:29.332Z,27.83
2019-02-05T19:55:58.277Z,32.07
2019-02-05T19:58:27.155Z,32.10
2019-02-05T20:00:56.193Z,29.70
2019-02-05T20:03:25.005Z,34.30
2019-02-05T20:05:53.666Z,30.87
2019-02-05T20:08:22.342Z,34.87
2019-02-05T20:10:51.017Z,34.67
2019-02-05T20:13:19.673Z,34.13
2019-02-05T20:15:51.167Z,33.97
2019-02-05T20:18:18.903Z,31.23
2019-02-05T20:20:47.591Z,21.90
2019-02-05T20:23:16.275Z,28.60
2019-02-05T20:25:45.003Z,41.10
2019-02-05T20:28:14.071Z,27.23
2019-02-05T20:30:42.754Z,26.37
2019-02-05T20:33:11.814Z,25.10
2019-02-05T20:35:40.555Z,27.40
2019-02-05T20:38:09.268Z,22.27
2019-02-05T20:40:37.937Z,26.73
2019-02-05T20:43:06.605Z,24.83
2019-02-05T20:45:35.287Z,27.00
2019-02-05T20:48:04.567Z,27.67
2019-02-05T20:50:33.450Z,23.50
2019-02-05T20:53:13.008Z,20.13
2019-02-05T20:55:32.551Z,21.93
2019-02-05T20:58:01.201Z,18.33
2019-02-05T21:00:33.723Z,14.03
2019-02-05T21:03:02.574Z,13.33
2019-02-05T21:05:31.261Z,14.73
2019-02-05T21:08:00.297Z,13.27
2019-02-05T21:10:31.432Z,12.40
2019-02-05T21:13:00.223Z,14.20
2019-02-05T21:15:29.093Z,13.10
2019-02-05T21:17:57.907Z,9.97
2019-02-05T21:20:32.738Z,14.30
2019-02-05T21:22:59.235Z,13.83
2019-02-05T21:25:28.427Z,14.57
2019-02-05T21:27:58.211Z,18.77
2019-02-05T21:30:28.070Z,16.00
2019-02-05T21:32:56.780Z,19.23
2019-02-05T21:35:25.501Z,17.03
2019-02-05T21:37:54.262Z,17.73
2019-02-05T21:40:31.302Z,18.57
2019-02-05T21:42:58.628Z,16.30
2019-02-05T21:45:33.558Z,18.70
2019-02-05T21:48:02.243Z,19.20
2019-02-05T21:50:30.965Z,20.37
2019-02-05T21:53:00.115Z,22.10
2019-02-05T21:55:29.497Z,21.97
2019-02-05T21:57:58.295Z,21.10
2019-02-05T22:00:33.501Z,28.23
2019-02-05T22:03:02.421Z,23.50
2019-02-05T22:05:32.826Z,21.47
2019-02-05T22:08:02.120Z,21.53
2019-02-05T22:10:30.806Z,20.27
2019-02-05T22:12:59.549Z,22.00
2019-02-05T22:15:28.813Z,20.27
2019-02-05T22:17:57.587Z,16.60
2019-02-05T22:20:28.030Z,19.93
2019-02-05T22:22:57.438Z,18.40
2019-02-05T22:25:29.040Z,21.17
2019-02-05T22:27:57.714Z,16.23
2019-02-05T22:30:31.853Z,18.17
2019-02-05T22:33:00.922Z,16.47
2019-02-05T22:35:29.999Z,16.57
2019-02-05T22:37:58.702Z,14.37
2019-02-05T22:40:28.174Z,15.47
2019-02-05T22:42:57.336Z,13.17
2019-02-05T22:45:31.229Z,15.23
2019-02-05T22:48:00.006Z,13.37
2019-02-05T22:50:31.423Z,13.07
2019-02-05T22:53:00.408Z,14.30
2019-02-05T22:55:29.173Z,14.10
2019-02-05T22:57:57.937Z,13.63
2019-02-05T23:00:50.131Z,13.30
2019-02-05T23:03:24.488Z,15.20
2019-02-05T23:06:14.880Z,13.17
2019-02-05T23:08:43.549Z,12.57
2019-02-05T23:11:31.865Z,13.47
2019-02-05T23:14:00.529Z,12.70
2019-02-05T23:16:29.196Z,12.50
2019-02-05T23:18:58.034Z,11.40
2019-02-05T23:21:26.702Z,11.50
2019-02-05T23:23:55.760Z,12.10
2019-02-05T23:26:24.426Z,13.70
2019-02-05T23:28:53.130Z,11.43
2019-02-05T23:31:21.844Z,11.70
2019-02-05T23:33:50.517Z,11.00
2019-02-05T23:36:19.344Z,14.27
2019-02-05T23:38:48.009Z,10.20
2019-02-05T23:41:16.971Z,9.03
2019-02-05T23:43:45.612Z,9.20
2019-02-05T23:46:14.275Z,8.97
2019-02-05T23:48:42.946Z,9.53
2019-02-05T23:51:11.995Z,7.40
2019-02-05T23:53:40.679Z,9.97
2019-02-05T23:56:09.851Z,6.77
2019-02-05T23:58:38.504Z,7.00
